sensor_id;sensor_type;location;lat;lon;timestamp;pressure;altitude;pressure_sealevel;temperature;humidity
75420;BME280;63998;52.488;13.428;2024-02-16T00:01:16;101378.59;;;10.61;100.00
75420;BME280;63998;52.488;13.428;2024-02-16T00:03:41;101388.09;;;10.61;100.00
75420;BME280;63998;52.488;13.428;2024-02-16T00:06:07;101375.03;;;10.55;100.00
75420;BME280;63998;52.488;13.428;2024-02-16T00:08:32;101373.22;;;10.48;100.00
75420;BME280;63998;52.488;13.428;2024-02-16T00:10:59;101367.06;;;10.41;100.00
75420;BME280;63998;52.488;13.428;2024-02-16T00:13:25;101369.56;;;10.33;100.00
75420;BME280;63998;52.488;13.428;2024-02-16T00:15:50;101360.84;;;10.28;100.00
75420;BME280;63998;52.488;13.428;2024-02-16T00:18:16;101366.84;;;10.24;100.00
75420;BME280;63998;52.488;13.428;2024-02-16T00:20:41;101374.59;;;10.21;100.00
75420;BME280;63998;52.488;13.428;2024-02-16T00:23:06;101376.22;;;10.16;100.00
75420;BME280;63998;52.488;13.428;2024-02-16T00:25:31;101378.81;;;10.16;100.00
75420;BME280;63998;52.488;13.428;2024-02-16T00:27:57;101377.97;;;10.17;100.00
75420;BME280;63998;52.488;13.428;2024-02-16T00:30:22;101383.25;;;10.20;100.00
75420;BME280;63998;52.488;13.428;2024-02-16T00:32:47;101381.50;;;10.19;100.00
75420;BME280;63998;52.488;13.428;2024-02-16T00:35:15;101379.63;;;10.12;100.00
75420;BME280;63998;52.488;13.428;2024-02-16T00:37:42;101367.47;;;10.08;100.00
75420;BME280;63998;52.488;13.428;2024-02-16T00:40:08;101362.22;;;10.05;100.00
75420;BME280;63998;52.488;13.428;2024-02-16T00:42:34;101360.47;;;10.04;100.00
75420;BME280;63998;52.488;13.428;2024-02-16T00:44:59;101365.66;;;10.04;100.00
75420;BME280;63998;52.488;13.428;2024-02-16T00:47:29;101361.28;;;10.00;100.00
75420;BME280;63998;52.488;13.428;2024-02-16T00:49:54;101360.44;;;10.01;100.00
75420;BME280;63998;52.488;13.428;2024-02-16T00:52:20;101357.06;;;10.08;100.00
75420;BME280;63998;52.488;13.428;2024-02-16T00:54:45;101358.88;;;10.12;100.00
75420;BME280;63998;52.488;13.428;2024-02-16T00:57:12;101354.53;;;10.14;100.00
75420;BME280;63998;52.488;13.428;2024-02-16T00:59:39;101357.94;;;10.07;100.00
75420;BME280;63998;52.488;13.428;2024-02-16T01:02:04;101356.28;;;10.12;100.00
75420;BME280;63998;52.488;13.428;2024-02-16T01:04:30;101351.09;;;10.14;100.00
75420;BME280;63998;52.488;13.428;2024-02-16T01:06:55;101349.34;;;10.14;100.00
75420;BME280;63998;52.488;13.428;2024-02-16T01:09:21;101346.75;;;10.14;100.00
75420;BME280;63998;52.488;13.428;2024-02-16T01:11:46;101345.03;;;10.13;100.00
75420;BME280;63998;52.488;13.428;2024-02-16T01:14:12;101341.56;;;10.11;100.00
75420;BME280;63998;52.488;13.428;2024-02-16T01:16:37;101347.56;;;10.08;100.00
75420;BME280;63998;52.488;13.428;2024-02-16T01:19:03;101343.25;;;10.09;100.00
75420;BME280;63998;52.488;13.428;2024-02-16T01:21:28;101335.38;;;10.04;100.00
75420;BME280;63998;52.488;13.428;2024-02-16T01:23:54;101333.63;;;10.00;100.00
75420;BME280;63998;52.488;13.428;2024-02-16T01:26:19;101331.81;;;9.96;100.00
75420;BME280;63998;52.488;13.428;2024-02-16T01:28:44;101343.84;;;9.91;100.00
75420;BME280;63998;52.488;13.428;2024-02-16T01:31:10;101337.84;;;9.94;100.00
75420;BME280;63998;52.488;13.428;2024-02-16T01:33:36;101341.34;;;9.96;100.00
75420;BME280;63998;52.488;13.428;2024-02-16T01:36:05;101341.22;;;9.87;100.00
75420;BME280;63998;52.488;13.428;2024-02-16T01:38:30;101333.38;;;9.84;100.00
75420;BME280;63998;52.488;13.428;2024-02-16T01:40:56;101334.19;;;9.81;100.00
75420;BME280;63998;52.488;13.428;2024-02-16T01:43:21;101336.78;;;9.81;100.00
75420;BME280;63998;52.488;13.428;2024-02-16T01:45:47;101332.41;;;9.77;100.00
75420;BME280;63998;52.488;13.428;2024-02-16T01:48:14;101328.09;;;9.76;100.00
75420;BME280;63998;52.488;13.428;2024-02-16T01:50:40;101326.38;;;9.77;100.00
75420;BME280;63998;52.488;13.428;2024-02-16T01:53:06;101328.97;;;9.80;100.00
75420;BME280;63998;52.488;13.428;2024-02-16T01:55:32;101322.03;;;9.79;100.00
75420;BME280;63998;52.488;13.428;2024-02-16T01:57:57;101318.53;;;9.73;100.00
75420;BME280;63998;52.488;13.428;2024-02-16T02:00:24;101315.00;;;9.68;100.00
75420;BME280;63998;52.488;13.428;2024-02-16T02:02:50;101308.88;;;9.65;100.00
75420;BME280;63998;52.488;13.428;2024-02-16T02:05:15;101303.69;;;9.65;100.00
75420;BME280;63998;52.488;13.428;2024-02-16T02:07:41;101303.69;;;9.63;100.00
75420;BME280;63998;52.488;13.428;2024-02-16T02:10:07;101297.59;;;9.61;100.00
75420;BME280;63998;52.488;13.428;2024-02-16T02:12:32;101296.72;;;9.61;100.00
75420;BME280;63998;52.488;13.428;2024-02-16T02:14:58;101295.84;;;9.60;100.00
75420;BME280;63998;52.488;13.428;2024-02-16T02:17:24;101288.06;;;9.60;100.00
75420;BME280;63998;52.488;13.428;2024-02-16T02:19:49;101280.28;;;9.60;100.00
75420;BME280;63998;52.488;13.428;2024-02-16T02:22:20;101274.97;;;9.51;100.00
75420;BME280;63998;52.488;13.428;2024-02-16T02:24:47;101278.41;;;9.49;100.00
75420;BME280;63998;52.488;13.428;2024-02-16T02:27:14;101276.69;;;9.49;100.00
75420;BME280;63998;52.488;13.428;2024-02-16T02:29:40;101266.25;;;9.46;100.00
75420;BME280;63998;52.488;13.428;2024-02-16T02:32:06;101274.09;;;9.49;100.00
75420;BME280;63998;52.488;13.428;2024-02-16T02:34:32;101265.41;;;9.47;100.00
75420;BME280;63998;52.488;13.428;2024-02-16T02:36:57;101261.06;;;9.46;100.00
75420;BME280;63998;52.488;13.428;2024-02-16T02:39:22;101255.78;;;9.40;100.00
75420;BME280;63998;52.488;13.428;2024-02-16T02:41:48;101259.22;;;9.38;100.00
75420;BME280;63998;52.488;13.428;2024-02-16T02:44:13;101246.16;;;9.31;100.00
75420;BME280;63998;52.488;13.428;2024-02-16T02:46:38;101250.50;;;9.34;100.00
75420;BME280;63998;52.488;13.428;2024-02-16T02:49:04;101253.94;;;9.33;100.00
75420;BME280;63998;52.488;13.428;2024-02-16T02:51:30;101251.41;;;9.36;100.00
75420;BME280;63998;52.488;13.428;2024-02-16T02:53:55;101249.69;;;9.36;100.00
75420;BME280;63998;52.488;13.428;2024-02-16T02:56:20;101254.84;;;9.35;100.00
75420;BME280;63998;52.488;13.428;2024-02-16T02:58:46;101247.03;;;9.32;100.00
75420;BME280;63998;52.488;13.428;2024-02-16T03:01:12;101248.75;;;9.33;100.00
75420;BME280;63998;52.488;13.428;2024-02-16T03:03:37;101245.31;;;9.34;100.00
75420;BME280;63998;52.488;13.428;2024-02-16T03:06:04;101228.94;;;9.36;100.00
75420;BME280;63998;52.488;13.428;2024-02-16T03:08:29;101228.97;;;9.40;100.00
75420;BME280;63998;52.488;13.428;2024-02-16T03:10:54;101236.75;;;9.38;100.00
75420;BME280;63998;52.488;13.428;2024-02-16T03:13:20;101233.25;;;9.36;100.00
75420;BME280;63998;52.488;13.428;2024-02-16T03:15:45;101243.72;;;9.42;100.00
75420;BME280;63998;52.488;13.428;2024-02-16T03:18:10;101243.75;;;9.45;100.00
75420;BME280;63998;52.488;13.428;2024-02-16T03:20:36;101247.19;;;9.44;100.00
75420;BME280;63998;52.488;13.428;2024-02-16T03:23:02;101246.31;;;9.44;100.00
75420;BME280;63998;52.488;13.428;2024-02-16T03:25:28;101243.75;;;9.45;100.00
75420;BME280;63998;52.488;13.428;2024-02-16T03:27:53;101245.47;;;9.45;100.00
75420;BME280;63998;52.488;13.428;2024-02-16T03:30:19;101247.19;;;9.44;100.00
75420;BME280;63998;52.488;13.428;2024-02-16T03:32:51;101248.13;;;9.48;100.00
75420;BME280;63998;52.488;13.428;2024-02-16T03:35:17;101243.88;;;9.51;100.00
75420;BME280;63998;52.488;13.428;2024-02-16T03:37:42;101236.94;;;9.50;100.00
75420;BME280;63998;52.488;13.428;2024-02-16T03:40:08;101233.50;;;9.51;100.00
75420;BME280;63998;52.488;13.428;2024-02-16T03:42:38;101227.44;;;9.52;100.00
75420;BME280;63998;52.488;13.428;2024-02-16T03:45:04;101221.38;;;9.50;100.00
75420;BME280;63998;52.488;13.428;2024-02-16T03:47:29;101222.25;;;9.51;100.00
75420;BME280;63998;52.488;13.428;2024-02-16T03:49:55;101224.81;;;9.49;100.00
75420;BME280;63998;52.488;13.428;2024-02-16T03:52:20;101214.44;;;9.49;100.00
75420;BME280;63998;52.488;13.428;2024-02-16T03:54:45;101217.00;;;9.48;100.00
75420;BME280;63998;52.488;13.428;2024-02-16T03:57:14;101215.25;;;9.45;100.00
75420;BME280;63998;52.488;13.428;2024-02-16T03:59:42;101224.66;;;9.40;100.00
75420;BME280;63998;52.488;13.428;2024-02-16T04:02:09;101214.28;;;9.40;100.00
75420;BME280;63998;52.488;13.428;2024-02-16T04:04:35;101222.91;;;9.36;100.00
75420;BME280;63998;52.488;13.428;2024-02-16T04:07:00;101205.59;;;9.35;100.00
75420;BME280;63998;52.488;13.428;2024-02-16T04:09:25;101208.97;;;9.31;100.00
75420;BME280;63998;52.488;13.428;2024-02-16T04:11:51;101204.66;;;9.31;100.00
75420;BME280;63998;52.488;13.428;2024-02-16T04:14:16;101196.03;;;9.31;100.00
75420;BME280;63998;52.488;13.428;2024-02-16T04:16:45;101204.69;;;9.33;100.00
75420;BME280;63998;52.488;13.428;2024-02-16T04:19:10;101197.78;;;9.33;100.00
75420;BME280;63998;52.488;13.428;2024-02-16T04:21:36;101201.19;;;9.29;100.00
75420;BME280;63998;52.488;13.428;2024-02-16T04:24:02;101207.25;;;9.30;100.00
75420;BME280;63998;52.488;13.428;2024-02-16T04:26:28;101208.97;;;9.31;100.00
75420;BME280;63998;52.488;13.428;2024-02-16T04:28:53;101201.19;;;9.29;100.00
75420;BME280;63998;52.488;13.428;2024-02-16T04:31:18;101208.91;;;9.25;100.00
75420;BME280;63998;52.488;13.428;2024-02-16T04:33:44;101202.94;;;9.30;100.00
75420;BME280;63998;52.488;13.428;2024-02-16T04:36:09;101196.88;;;9.30;100.00
75420;BME280;63998;52.488;13.428;2024-02-16T04:38:35;101195.13;;;9.29;100.00
75420;BME280;63998;52.488;13.428;2024-02-16T04:41:00;101185.69;;;9.32;100.00
75420;BME280;63998;52.488;13.428;2024-02-16T04:43:25;101191.72;;;9.33;100.00
75420;BME280;63998;52.488;13.428;2024-02-16T04:45:51;101191.69;;;9.30;100.00
75420;BME280;63998;52.488;13.428;2024-02-16T04:48:16;101193.44;;;9.31;100.00
75420;BME280;63998;52.488;13.428;2024-02-16T04:50:41;101188.19;;;9.28;100.00
75420;BME280;63998;52.488;13.428;2024-02-16T04:53:07;101189.06;;;9.27;100.00
75420;BME280;63998;52.488;13.428;2024-02-16T04:55:32;101188.25;;;9.31;100.00
75420;BME280;63998;52.488;13.428;2024-02-16T04:57:58;101177.88;;;9.31;100.00
75420;BME280;63998;52.488;13.428;2024-02-16T05:00:24;101177.88;;;9.31;100.00
75420;BME280;63998;52.488;13.428;2024-02-16T05:02:50;101175.31;;;9.32;100.00
75420;BME280;63998;52.488;13.428;2024-02-16T05:05:16;101177.03;;;9.32;100.00
75420;BME280;63998;52.488;13.428;2024-02-16T05:07:42;101173.47;;;9.24;100.00
75420;BME280;63998;52.488;13.428;2024-02-16T05:10:08;101181.13;;;9.18;100.00
75420;BME280;63998;52.488;13.428;2024-02-16T05:12:34;101180.28;;;9.19;100.00
75420;BME280;63998;52.488;13.428;2024-02-16T05:15:00;101177.66;;;9.16;100.00
75420;BME280;63998;52.488;13.428;2024-02-16T05:17:25;101165.53;;;9.13;100.00
75420;BME280;63998;52.488;13.428;2024-02-16T05:19:51;101168.94;;;9.11;100.00
75420;BME280;63998;52.488;13.428;2024-02-16T05:22:17;101169.84;;;9.13;100.00
75420;BME280;63998;52.488;13.428;2024-02-16T05:24:44;101172.47;;;9.16;100.00
75420;BME280;63998;52.488;13.428;2024-02-16T05:27:10;101169.91;;;9.17;100.00
75420;BME280;63998;52.488;13.428;2024-02-16T05:29:36;101169.00;;;9.14;100.00
75420;BME280;63998;52.488;13.428;2024-02-16T05:32:01;101179.44;;;9.20;100.00
75420;BME280;63998;52.488;13.428;2024-02-16T05:34:26;101167.38;;;9.22;100.00
75420;BME280;63998;52.488;13.428;2024-02-16T05:36:56;101167.44;;;9.25;100.00
75420;BME280;63998;52.488;13.428;2024-02-16T05:39:21;101170.88;;;9.24;100.00
75420;BME280;63998;52.488;13.428;2024-02-16T05:41:52;101156.13;;;9.20;100.00
75420;BME280;63998;52.488;13.428;2024-02-16T05:44:18;101163.84;;;9.17;100.00
75420;BME280;63998;52.488;13.428;2024-02-16T05:46:45;101151.72;;;9.16;100.00
75420;BME280;63998;52.488;13.428;2024-02-16T05:49:10;101155.22;;;9.18;100.00
75420;BME280;63998;52.488;13.428;2024-02-16T05:51:36;101148.28;;;9.17;100.00
75420;BME280;63998;52.488;13.428;2024-02-16T05:54:02;101155.19;;;9.15;100.00
75420;BME280;63998;52.488;13.428;2024-02-16T05:56:27;101136.16;;;9.13;100.00
75420;BME280;63998;52.488;13.428;2024-02-16T05:58:53;101135.31;;;9.14;100.00
75420;BME280;63998;52.488;13.428;2024-02-16T06:01:18;101143.09;;;9.14;100.00
75420;BME280;63998;52.488;13.428;2024-02-16T06:03:44;101141.34;;;9.13;100.00
75420;BME280;63998;52.488;13.428;2024-02-16T06:06:09;101141.34;;;9.13;100.00
75420;BME280;63998;52.488;13.428;2024-02-16T06:08:34;101142.19;;;9.12;100.00
75420;BME280;63998;52.488;13.428;2024-02-16T06:11:00;101151.66;;;9.10;100.00
75420;BME280;63998;52.488;13.428;2024-02-16T06:13:27;101148.22;;;9.11;100.00
75420;BME280;63998;52.488;13.428;2024-02-16T06:15:52;101148.22;;;9.11;100.00
75420;BME280;63998;52.488;13.428;2024-02-16T06:18:18;101141.28;;;9.10;100.00
75420;BME280;63998;52.488;13.428;2024-02-16T06:20:44;101148.16;;;9.08;100.00
75420;BME280;63998;52.488;13.428;2024-02-16T06:23:10;101148.16;;;9.08;100.00
75420;BME280;63998;52.488;13.428;2024-02-16T06:25:35;101139.50;;;9.06;100.00
75420;BME280;63998;52.488;13.428;2024-02-16T06:28:02;101138.59;;;9.04;100.00
75420;BME280;63998;52.488;13.428;2024-02-16T06:30:27;101144.69;;;9.06;100.00
75420;BME280;63998;52.488;13.428;2024-02-16T06:32:53;101148.09;;;9.02;100.00
75420;BME280;63998;52.488;13.428;2024-02-16T06:35:20;101142.91;;;9.02;100.00
75420;BME280;63998;52.488;13.428;2024-02-16T06:37:45;101140.38;;;9.06;100.00
75420;BME280;63998;52.488;13.428;2024-02-16T06:40:11;101141.19;;;9.04;100.00
75420;BME280;63998;52.488;13.428;2024-02-16T06:42:37;101138.66;;;9.07;100.00
75420;BME280;63998;52.488;13.428;2024-02-16T06:45:03;101137.81;;;9.08;100.00
75420;BME280;63998;52.488;13.428;2024-02-16T06:47:30;101138.72;;;9.10;100.00
75420;BME280;63998;52.488;13.428;2024-02-16T06:49:56;101143.03;;;9.11;100.00
75420;BME280;63998;52.488;13.428;2024-02-16T06:52:21;101153.47;;;9.14;100.00
75420;BME280;63998;52.488;13.428;2024-02-16T06:54:46;101146.53;;;9.16;100.00
75420;BME280;63998;52.488;13.428;2024-02-16T06:57:12;101153.44;;;9.15;100.00
75420;BME280;63998;52.488;13.428;2024-02-16T06:59:37;101147.44;;;9.15;100.00
75420;BME280;63998;52.488;13.428;2024-02-16T07:02:02;101150.94;;;9.20;100.00
75420;BME280;63998;52.488;13.428;2024-02-16T07:04:28;101148.41;;;9.23;100.00
75420;BME280;63998;52.488;13.428;2024-02-16T07:06:53;101145.91;;;9.30;100.00
75420;BME280;63998;52.488;13.428;2024-02-16T07:09:18;101148.56;;;9.35;100.00
75420;BME280;63998;52.488;13.428;2024-02-16T07:11:44;101138.25;;;9.38;100.00
75420;BME280;63998;52.488;13.428;2024-02-16T07:14:12;101141.69;;;9.40;100.00
75420;BME280;63998;52.488;13.428;2024-02-16T07:16:38;101131.38;;;9.43;100.00
75420;BME280;63998;52.488;13.428;2024-02-16T07:19:03;101133.13;;;9.44;100.00
75420;BME280;63998;52.488;13.428;2024-02-16T07:21:28;101127.97;;;9.47;100.00
75420;BME280;63998;52.488;13.428;2024-02-16T07:23:54;101137.59;;;9.56;100.00
75420;BME280;63998;52.488;13.428;2024-02-16T07:26:19;101138.56;;;9.65;100.00
75420;BME280;63998;52.488;13.428;2024-02-16T07:28:45;101137.81;;;9.74;100.00
75420;BME280;63998;52.488;13.428;2024-02-16T07:31:10;101137.00;;;9.80;100.00
75420;BME280;63998;52.488;13.428;2024-02-16T07:33:36;101130.16;;;9.85;100.00
75420;BME280;63998;52.488;13.428;2024-02-16T07:36:01;101135.41;;;9.91;100.00
75420;BME280;63998;52.488;13.428;2024-02-16T07:38:27;101130.34;;;10.03;100.00
75420;BME280;63998;52.488;13.428;2024-02-16T07:40:53;101126.97;;;10.10;100.00
75420;BME280;63998;52.488;13.428;2024-02-16T07:43:19;101123.63;;;10.20;100.00
75420;BME280;63998;52.488;13.428;2024-02-16T07:45:44;101119.41;;;10.31;100.00
75420;BME280;63998;52.488;13.428;2024-02-16T07:48:10;101121.22;;;10.41;100.00
75420;BME280;63998;52.488;13.428;2024-02-16T07:50:35;101118.69;;;10.48;100.00
75420;BME280;63998;52.488;13.428;2024-02-16T07:53:00;101119.69;;;10.62;100.00
75420;BME280;63998;52.488;13.428;2024-02-16T07:55:26;101129.34;;;10.81;100.00
75420;BME280;63998;52.488;13.428;2024-02-16T07:57:52;101120.97;;;11.25;100.00
75420;BME280;63998;52.488;13.428;2024-02-16T08:00:17;101119.59;;;12.61;100.00
75420;BME280;63998;52.488;13.428;2024-02-16T08:02:43;101098.88;;;14.34;100.00
75420;BME280;63998;52.488;13.428;2024-02-16T08:05:11;101093.66;;;15.97;100.00
75420;BME280;63998;52.488;13.428;2024-02-16T08:07:41;101090.69;;;17.63;87.09
75420;BME280;63998;52.488;13.428;2024-02-16T08:10:09;101093.50;;;19.01;78.97
75420;BME280;63998;52.488;13.428;2024-02-16T08:12:35;101089.28;;;19.27;67.95
75420;BME280;63998;52.488;13.428;2024-02-16T08:15:04;101097.53;;;19.77;65.19
75420;BME280;63998;52.488;13.428;2024-02-16T08:17:32;101092.88;;;20.40;62.86
75420;BME280;63998;52.488;13.428;2024-02-16T08:19:59;101102.66;;;20.09;58.84
75420;BME280;63998;52.488;13.428;2024-02-16T08:22:24;101100.78;;;19.55;59.80
75420;BME280;63998;52.488;13.428;2024-02-16T08:24:49;101103.44;;;19.54;63.22
75420;BME280;63998;52.488;13.428;2024-02-16T08:27:15;101101.91;;;19.16;62.82
75420;BME280;63998;52.488;13.428;2024-02-16T08:29:41;101105.44;;;19.15;62.68
75420;BME280;63998;52.488;13.428;2024-02-16T08:32:07;101104.75;;;19.39;63.09
75420;BME280;63998;52.488;13.428;2024-02-16T08:34:34;101092.44;;;19.09;61.51
75420;BME280;63998;52.488;13.428;2024-02-16T08:37:02;101095.22;;;19.94;58.87
75420;BME280;63998;52.488;13.428;2024-02-16T08:39:27;101087.47;;;20.70;56.62
75420;BME280;63998;52.488;13.428;2024-02-16T08:41:53;101091.25;;;19.19;55.95
75420;BME280;63998;52.488;13.428;2024-02-16T08:44:18;101089.41;;;18.56;63.00
75420;BME280;63998;52.488;13.428;2024-02-16T08:46:44;101083.28;;;17.83;66.30
75420;BME280;63998;52.488;13.428;2024-02-16T08:49:09;101083.44;;;16.87;67.47
75420;BME280;63998;52.488;13.428;2024-02-16T08:51:35;101088.13;;;16.18;73.64
75420;BME280;63998;52.488;13.428;2024-02-16T08:54:01;101089.38;;;15.21;79.42
75420;BME280;63998;52.488;13.428;2024-02-16T08:56:29;101097.72;;;14.72;85.98
75420;BME280;63998;52.488;13.428;2024-02-16T08:58:54;101098.09;;;14.28;90.21
75420;BME280;63998;52.488;13.428;2024-02-16T09:01:30;101097.53;;;13.83;92.46
75420;BME280;63998;52.488;13.428;2024-02-16T09:03:56;101099.28;;;13.75;96.21
75420;BME280;63998;52.488;13.428;2024-02-16T09:06:21;101096.69;;;13.75;98.72
75420;BME280;63998;52.488;13.428;2024-02-16T09:08:46;101084.63;;;13.50;99.49
75420;BME280;63998;52.488;13.428;2024-02-16T09:11:12;101093.38;;;13.37;100.00
75420;BME280;63998;52.488;13.428;2024-02-16T09:13:39;101080.41;;;13.15;100.00
75420;BME280;63998;52.488;13.428;2024-02-16T09:16:05;101087.41;;;12.92;100.00
75420;BME280;63998;52.488;13.428;2024-02-16T09:18:31;101090.88;;;12.89;100.00
75420;BME280;63998;52.488;13.428;2024-02-16T09:20:56;101092.63;;;12.84;100.00
75420;BME280;63998;52.488;13.428;2024-02-16T09:23:22;101091.75;;;12.93;100.00
75420;BME280;63998;52.488;13.428;2024-02-16T09:25:48;101102.16;;;12.90;100.00
75420;BME280;63998;52.488;13.428;2024-02-16T09:28:14;101093.47;;;13.03;100.00
75420;BME280;63998;52.488;13.428;2024-02-16T09:30:39;101095.19;;;13.10;100.00
75420;BME280;63998;52.488;13.428;2024-02-16T09:33:05;101091.69;;;13.26;100.00
75420;BME280;63998;52.488;13.428;2024-02-16T09:35:32;101083.81;;;13.39;100.00
75420;BME280;63998;52.488;13.428;2024-02-16T09:37:57;101086.41;;;13.39;100.00
75420;BME280;63998;52.488;13.428;2024-02-16T09:40:23;101079.44;;;13.44;100.00
75420;BME280;63998;52.488;13.428;2024-02-16T09:42:49;101080.22;;;13.61;100.00
75420;BME280;63998;52.488;13.428;2024-02-16T09:45:15;101084.56;;;13.62;100.00
75420;BME280;63998;52.488;13.428;2024-02-16T09:47:42;101081.06;;;13.72;100.00
75420;BME280;63998;52.488;13.428;2024-02-16T09:50:09;101091.50;;;13.72;100.00
75420;BME280;63998;52.488;13.428;2024-02-16T09:52:35;101081.06;;;13.66;100.00
75420;BME280;63998;52.488;13.428;2024-02-16T09:55:01;101077.66;;;13.49;100.00
75420;BME280;63998;52.488;13.428;2024-02-16T09:57:26;101081.19;;;13.36;100.00
75420;BME280;63998;52.488;13.428;2024-02-16T09:59:52;101081.22;;;13.33;100.00
75420;BME280;63998;52.488;13.428;2024-02-16T10:02:17;101084.69;;;13.38;100.00
75420;BME280;63998;52.488;13.428;2024-02-16T10:04:42;101103.00;;;13.12;100.00
75420;BME280;63998;52.488;13.428;2024-02-16T10:07:08;101105.59;;;13.13;100.00
75420;BME280;63998;52.488;13.428;2024-02-16T10:09:33;101105.63;;;13.04;100.00
75420;BME280;63998;52.488;13.428;2024-02-16T10:11:59;101096.94;;;12.99;100.00
75420;BME280;63998;52.488;13.428;2024-02-16T10:14:24;101102.19;;;12.96;100.00
75420;BME280;63998;52.488;13.428;2024-02-16T10:17:04;101097.81;;;13.07;100.00
75420;BME280;63998;52.488;13.428;2024-02-16T10:19:31;101098.66;;;13.18;100.00
75420;BME280;63998;52.488;13.428;2024-02-16T10:22:11;101095.19;;;13.16;100.00
75420;BME280;63998;52.488;13.428;2024-02-16T10:24:37;101089.06;;;13.11;100.00
75420;BME280;63998;52.488;13.428;2024-02-16T10:27:05;101091.69;;;13.23;100.00
75420;BME280;63998;52.488;13.428;2024-02-16T10:29:32;101097.75;;;13.27;100.00
75420;BME280;63998;52.488;13.428;2024-02-16T10:31:57;101095.16;;;13.28;100.00
75420;BME280;63998;52.488;13.428;2024-02-16T10:34:24;101082.09;;;13.33;100.00
75420;BME280;63998;52.488;13.428;2024-02-16T10:36:50;101094.25;;;13.40;100.00
75420;BME280;63998;52.488;13.428;2024-02-16T10:39:16;101090.81;;;13.26;100.00
75420;BME280;63998;52.488;13.428;2024-02-16T10:41:44;101089.94;;;13.28;100.00
75420;BME280;63998;52.488;13.428;2024-02-16T10:44:11;101089.94;;;13.25;100.00
75420;BME280;63998;52.488;13.428;2024-02-16T10:46:36;101089.94;;;13.13;100.00
75420;BME280;63998;52.488;13.428;2024-02-16T10:49:03;101083.00;;;13.12;100.00
75420;BME280;63998;52.488;13.428;2024-02-16T10:51:49;101077.81;;;13.06;100.00
75420;BME280;63998;52.488;13.428;2024-02-16T10:54:18;101080.38;;;13.14;100.00
75420;BME280;63998;52.488;13.428;2024-02-16T10:56:44;101078.63;;;13.13;100.00
75420;BME280;63998;52.488;13.428;2024-02-16T10:59:10;101072.59;;;13.15;100.00
75420;BME280;63998;52.488;13.428;2024-02-16T11:01:43;101076.06;;;13.20;100.00
75420;BME280;63998;52.488;13.428;2024-02-16T11:04:18;101069.06;;;13.35;100.00
75420;BME280;63998;52.488;13.428;2024-02-16T11:06:47;101071.63;;;13.44;100.00
75420;BME280;63998;52.488;13.428;2024-02-16T11:09:29;101074.19;;;13.50;100.00
75420;BME280;63998;52.488;13.428;2024-02-16T11:11:58;101062.88;;;13.51;100.00
75420;BME280;63998;52.488;13.428;2024-02-16T11:14:24;101053.22;;;13.71;100.00
75420;BME280;63998;52.488;13.428;2024-02-16T11:16:53;101054.81;;;13.90;100.00
75420;BME280;63998;52.488;13.428;2024-02-16T11:19:19;101049.50;;;14.06;100.00
75420;BME280;63998;52.488;13.428;2024-02-16T11:21:59;101051.16;;;14.13;100.00
75420;BME280;63998;52.488;13.428;2024-02-16T11:24:34;101047.53;;;14.32;100.00
75420;BME280;63998;52.488;13.428;2024-02-16T11:27:05;101042.16;;;14.50;100.00
75420;BME280;63998;52.488;13.428;2024-02-16T11:29:32;101038.56;;;14.63;99.42
75420;BME280;63998;52.488;13.428;2024-02-16T11:32:00;101039.31;;;14.76;95.12
75420;BME280;63998;52.488;13.428;2024-02-16T11:34:25;101040.00;;;14.95;94.49
75420;BME280;63998;52.488;13.428;2024-02-16T11:36:53;101036.22;;;15.17;95.06
75420;BME280;63998;52.488;13.428;2024-02-16T11:39:19;101023.91;;;15.25;96.74
75420;BME280;63998;52.488;13.428;2024-02-16T11:41:45;101026.34;;;15.39;88.98
75420;BME280;63998;52.488;13.428;2024-02-16T11:44:10;101023.19;;;15.80;90.55
75420;BME280;63998;52.488;13.428;2024-02-16T11:46:38;101017.75;;;15.92;93.28
75420;BME280;63998;52.488;13.428;2024-02-16T11:49:07;101008.75;;;16.08;92.29
75420;BME280;63998;52.488;13.428;2024-02-16T11:51:33;101016.31;;;16.77;91.80
75420;BME280;63998;52.488;13.428;2024-02-16T11:53:59;101005.50;;;17.34;86.81
75420;BME280;63998;52.488;13.428;2024-02-16T11:56:25;100999.66;;;18.00;77.33
75420;BME280;63998;52.488;13.428;2024-02-16T11:58:50;101000.28;;;19.38;70.88
75420;BME280;63998;52.488;13.428;2024-02-16T12:01:16;101008.00;;;20.53;63.28
75420;BME280;63998;52.488;13.428;2024-02-16T12:03:41;101000.94;;;20.78;56.10
75420;BME280;63998;52.488;13.428;2024-02-16T12:06:20;101002.47;;;21.55;53.15
75420;BME280;63998;52.488;13.428;2024-02-16T12:08:46;100995.88;;;21.65;52.42
75420;BME280;63998;52.488;13.428;2024-02-16T12:11:12;101011.44;;;21.95;54.27
75420;BME280;63998;52.488;13.428;2024-02-16T12:13:39;101011.75;;;21.20;54.44
75420;BME280;63998;52.488;13.428;2024-02-16T12:16:05;101021.09;;;19.77;60.27
75420;BME280;63998;52.488;13.428;2024-02-16T12:18:32;101018.03;;;18.70;61.94
75420;BME280;63998;52.488;13.428;2024-02-16T12:21:01;101010.09;;;18.03;66.44
75420;BME280;63998;52.488;13.428;2024-02-16T12:23:27;101022.41;;;17.21;72.33
75420;BME280;63998;52.488;13.428;2024-02-16T12:25:52;101023.94;;;16.90;76.63
75420;BME280;63998;52.488;13.428;2024-02-16T12:28:18;101027.19;;;16.56;72.27
75420;BME280;63998;52.488;13.428;2024-02-16T12:30:46;101023.72;;;16.54;71.03